Pagina principale
METAR-TAF:

METAR-TAF

Aeroporti :

Trieste / Ronchi dei Legionari, Italia

Aeroporto di Trieste-Ronchi dei Legionari

latitudine: 45-49N, longitudine: 013-29E, altezza: 12 m

Osservazione

Il bollettino è stato emesso 18 minuti fa, alle 13:20 UTC
Vento 6 kt da nord, variando fra nord-ovest e nord/nord-est
Temperature 12°C
Umidità 88%
Pressione 1009 hPa
Visibilità 10 km o più
Nubi sparse ad un'altezza di 4000 ft
Nuvoloso ad un'altezza di 7000 ft
pioggia debole

METAR: LIPQ 191320Z 35006KT 320V020 9999 -RA SCT040 BKN070 12/10 Q1009

Ora: 15:38 (13:38 UTC)

Previsione

Il bollettino è stato emesso 2 ore e 38 minuti fa, alle 11:00 UTC
Previsione valida dal 19 alle 12 UTC al 20 alle 12 UTC
Vento 8 kt da nord/nord-est
Visibilità 10 km o più
Nubi sparse ad un'altezza di 4000 ft
Temporaneamente
dal 19 alle 12 UTC al 19 alle 20 UTC
pioggia

TAF: LIPQ 191100Z 1912/2012 02008KT 9999 SCT040 TEMPO 1912/1920 RA

Osservazioni e previsioni meteorologiche di più di 4000 aeroporti (messaggi METAR e TAF).

Le stazioni disponibili sono rappresentate dai dischi gialli e rossi sulla carta.

Puntare il mouse per vedere il nome della stazione.

Clicca sopra per visualizzare le osservazioni e previsioni meteorologiche.

Per cambiare la mappa : fare clic sui pulsanti verdi con una croce nera per ingrandire, il pulsante verde con un trattino per diminuire, o sulla freccia verde per le mappe adiacenti.


METAR-TAF: